Time;durP1;ratioP1;P1;durP2;ratioP2;P2;SDS_P1;SDS_P2;PMS_P1;PMS_P2;Temp;Humidity;BMP_temperature;BMP_pressure;BME280_temperature;BME280_humidity;BME280_pressure;Samples;Min_cycle;Max_cycle;Signal;HPM_P1;HPM_P2
2022/07/03 00:02:16;;;;;;;2.50;1.70;;;21.50;76.40;;;;;;7417501;19;20415;-84
2022/07/03 00:04:46;;;;;;;2.87;2.17;;;21.50;75.90;;;;;;7398355;19;20954;-86
2022/07/03 00:07:16;;;;;;;2.70;2.20;;;21.50;75.10;;;;;;7388250;19;20418;-84
2022/07/03 00:09:48;;;;;;;3.30;2.30;;;21.70;74.80;;;;;;7387791;19;20919;-85
2022/07/03 00:12:17;;;;;;;2.10;1.90;;;21.50;75.20;;;;;;7384674;19;20408;-86
2022/07/03 00:14:47;;;;;;;1.77;1.67;;;21.40;75.60;;;;;;7382166;19;20495;-83
2022/07/03 00:17:19;;;;;;;3.53;2.27;;;21.30;76.30;;;;;;7379993;19;20435;-84
2022/07/03 00:19:48;;;;;;;2.97;2.07;;;21.40;76.70;;;;;;7376283;19;20500;-81
2022/07/03 00:22:18;;;;;;;2.20;2.00;;;21.40;76.30;;;;;;7376305;19;20431;-82
2022/07/03 00:24:53;;;;;;;2.60;1.93;;;21.40;76.50;;;;;;7377880;19;20404;-83
2022/07/03 00:27:26;;;;;;;2.13;1.90;;;21.20;77.50;;;;;;7376545;19;20399;-84
2022/07/03 00:30:02;;;;;;;2.10;1.83;;;21.20;78.30;;;;;;7377134;19;20408;-84
2022/07/03 00:32:34;;;;;;;2.67;2.27;;;21.10;77.90;;;;;;7377419;19;20991;-83
2022/07/03 00:35:07;;;;;;;3.00;2.27;;;21.20;78.10;;;;;;7374816;19;20502;-82
2022/07/03 00:37:39;;;;;;;3.30;2.40;;;21.10;78.60;;;;;;7371604;19;20944;-84
2022/07/03 00:40:13;;;;;;;3.60;2.47;;;21.20;78.60;;;;;;7375514;19;21416;-84
2022/07/03 00:42:45;;;;;;;3.33;1.97;;;21.20;78.60;;;;;;7377994;19;20482;-84
2022/07/03 00:45:18;;;;;;;5.10;2.33;;;21.10;78.60;;;;;;7373847;19;20400;-83
2022/07/03 00:47:48;;;;;;;2.87;2.57;;;21.10;78.80;;;;;;7377047;19;21239;-84
2022/07/03 00:50:18;;;;;;;4.10;2.50;;;21.20;78.40;;;;;;7376226;19;20424;-82
2022/07/03 00:52:49;;;;;;;2.50;2.00;;;21.10;78.70;;;;;;7373905;19;20426;-84
2022/07/03 00:55:26;;;;;;;2.30;2.00;;;21.00;79.20;;;;;;7373258;19;20758;-82
2022/07/03 00:57:58;;;;;;;2.47;2.00;;;21.00;80.30;;;;;;7364200;19;20446;-82
2022/07/03 01:00:27;;;;;;;3.43;2.30;;;21.10;79.30;;;;;;7373231;19;20416;-83
2022/07/03 01:03:03;;;;;;;2.60;2.17;;;21.00;80.00;;;;;;7376161;19;20944;-84
2022/07/03 01:05:39;;;;;;;4.17;2.20;;;21.10;79.60;;;;;;7384611;19;20411;-85
2022/07/03 01:08:17;;;;;;;2.73;2.50;;;21.00;80.70;;;;;;7387915;19;21124;-84
2022/07/03 01:10:57;;;;;;;2.40;2.20;;;21.00;81.20;;;;;;7387486;19;20750;-84
2022/07/03 01:13:40;;;;;;;2.20;2.00;;;21.00;79.70;;;;;;7387030;19;20468;-85
2022/07/03 01:16:20;;;;;;;3.90;2.17;;;21.10;80.50;;;;;;7379226;19;20888;-85
2022/07/03 01:18:56;;;;;;;2.87;2.10;;;21.20;79.10;;;;;;7384846;19;20494;-86
2022/07/03 01:21:37;;;;;;;2.63;2.37;;;21.20;78.10;;;;;;7385511;19;21481;-84
2022/07/03 01:24:31;;;;;;;2.30;2.10;;;21.20;78.80;;;;;;7386740;19;20520;-86
2022/07/03 01:27:09;;;;;;;1.87;1.77;;;21.10;80.10;;;;;;7380910;19;20461;-83
2022/07/03 01:29:50;;;;;;;2.50;2.30;;;21.00;80.00;;;;;;7381812;19;20975;-83
2022/07/03 01:32:21;;;;;;;2.40;2.20;;;21.00;80.70;;;;;;7382892;19;20415;-84
2022/07/03 01:34:55;;;;;;;21.27;13.30;;;21.10;80.60;;;;;;7381501;19;21017;-84
2022/07/03 01:37:27;;;;;;;11.30;6.20;;;21.10;80.20;;;;;;7381500;19;20395;-83
2022/07/03 01:39:59;;;;;;;3.83;2.17;;;21.00;80.80;;;;;;7379825;19;20412;-83
2022/07/03 01:42:35;;;;;;;2.37;1.90;;;21.00;81.20;;;;;;7379624;19;20420;-83
2022/07/03 01:45:05;;;;;;;2.33;1.90;;;21.00;81.50;;;;;;7380261;19;20403;-85
2022/07/03 01:47:37;;;;;;;2.23;2.03;;;21.10;80.30;;;;;;7384248;19;20415;-85
2022/07/03 01:50:09;;;;;;;2.10;1.77;;;21.10;80.40;;;;;;7385599;19;20404;-88
2022/07/03 01:52:43;;;;;;;2.97;1.97;;;21.20;80.10;;;;;;7383157;19;21035;-83
2022/07/03 01:55:16;;;;;;;2.57;2.13;;;21.10;80.20;;;;;;7373195;19;20412;-82
2022/07/03 01:57:50;;;;;;;4.13;2.13;;;21.10;80.00;;;;;;7378308;19;20432;-83
2022/07/03 02:00:22;;;;;;;2.20;1.80;;;21.10;80.90;;;;;;7377778;19;20422;-82
2022/07/03 02:02:58;;;;;;;2.17;1.97;;;21.10;81.20;;;;;;7377580;19;20983;-84
2022/07/03 02:05:45;;;;;;;1.87;1.60;;;21.00;81.90;;;;;;7374074;19;20454;-81
2022/07/03 02:08:25;;;;;;;2.30;2.03;;;20.90;82.30;;;;;;7372909;19;20406;-81
2022/07/03 02:11:07;;;;;;;2.00;1.90;;;20.80;83.60;;;;;;7375288;19;20396;-82
2022/07/03 02:13:42;;;;;;;2.17;1.90;;;20.80;83.70;;;;;;7381325;19;20425;-84
2022/07/03 02:16:19;;;;;;;2.10;1.90;;;20.90;83.60;;;;;;7378621;19;21367;-85
2022/07/03 02:18:58;;;;;;;1.67;1.53;;;20.80;83.30;;;;;;7379169;19;20987;-84
2022/07/03 02:21:31;;;;;;;2.90;2.13;;;20.70;83.30;;;;;;7379713;19;20400;-87
2022/07/03 02:24:19;;;;;;;6.53;1.80;;;20.70;84.20;;;;;;7377562;19;20416;-83
2022/07/03 02:26:58;;;;;;;2.00;1.80;;;20.70;84.90;;;;;;7377236;19;20499;-84
2022/07/03 02:29:35;;;;;;;2.10;1.90;;;20.70;84.50;;;;;;7382600;19;20927;-84
2022/07/03 02:32:09;;;;;;;2.07;1.87;;;20.70;84.70;;;;;;7375567;19;20404;-85
2022/07/03 02:34:40;;;;;;;2.50;2.13;;;20.90;84.20;;;;;;7379519;19;20420;-85
2022/07/03 02:37:17;;;;;;;6.43;1.80;;;20.80;84.40;;;;;;7379617;19;20839;-82
2022/07/03 02:39:53;;;;;;;1.87;1.73;;;20.70;85.00;;;;;;7380080;19;21153;-83
2022/07/03 02:42:33;;;;;;;2.00;1.80;;;20.80;85.70;;;;;;7379839;19;20408;-86
2022/07/03 02:45:07;;;;;;;2.03;1.83;;;20.70;85.90;;;;;;7408784;19;20451;-86
2022/07/03 02:47:46;;;;;;;3.67;1.90;;;20.70;85.80;;;;;;7416005;19;20444;-85
2022/07/03 02:50:19;;;;;;;1.70;1.43;;;20.80;85.80;;;;;;7419775;19;20416;-85
2022/07/03 02:52:59;;;;;;;2.53;2.03;;;20.80;85.40;;;;;;7419020;19;20420;-84
2022/07/03 02:55:44;;;;;;;3.37;1.93;;;20.60;86.60;;;;;;7424672;19;20404;-85
2022/07/03 02:58:42;;;;;;;4.03;1.90;;;20.60;87.50;;;;;;7408907;19;20436;-85
2022/07/03 03:01:27;;;;;;;5.40;1.80;;;20.40;88.60;;;;;;7411195;19;20428;-83
2022/07/03 03:04:08;;;;;;;2.30;2.10;;;20.30;90.00;;;;;;7420200;19;20504;-86
2022/07/03 03:06:39;;;;;;;2.13;1.93;;;20.30;90.00;;;;;;7419087;19;20412;-86
2022/07/03 03:09:17;;;;;;;3.10;2.17;;;20.20;90.40;;;;;;7424071;19;20417;-85
2022/07/03 03:11:51;;;;;;;2.17;1.90;;;20.30;90.60;;;;;;7427422;19;20396;-82
2022/07/03 03:14:23;;;;;;;4.30;2.17;;;20.40;90.40;;;;;;7431629;19;20419;-82
2022/07/03 03:16:56;;;;;;;1.80;1.70;;;20.40;90.30;;;;;;7426669;19;20408;-85
2022/07/03 03:19:28;;;;;;;1.73;1.63;;;20.40;90.80;;;;;;7391264;19;20421;-85
2022/07/03 03:22:05;;;;;;;2.90;1.63;;;20.30;91.00;;;;;;7394133;19;20384;-85
2022/07/03 03:24:36;;;;;;;2.47;1.83;;;20.20;91.80;;;;;;7392069;19;20408;-84
2022/07/03 03:27:06;;;;;;;1.63;1.53;;;20.20;92.00;;;;;;7386477;19;20409;-83
2022/07/03 03:29:36;;;;;;;1.60;1.50;;;20.20;92.30;;;;;;7386096;19;20420;-84
2022/07/03 03:32:10;;;;;;;1.80;1.70;;;20.20;92.40;;;;;;7384913;19;20433;-84
2022/07/03 03:34:43;;;;;;;3.70;1.90;;;20.20;92.70;;;;;;7383562;19;20420;-84
2022/07/03 03:37:13;;;;;;;3.90;2.00;;;20.10;93.00;;;;;;7383461;19;20400;-86
2022/07/03 03:39:45;;;;;;;2.07;1.87;;;20.10;93.10;;;;;;7380855;19;20412;-84
2022/07/03 03:42:14;;;;;;;1.87;1.60;;;20.20;92.90;;;;;;7384581;19;20487;-84
2022/07/03 03:44:44;;;;;;;1.60;1.50;;;20.20;93.00;;;;;;7381680;19;20940;-84
2022/07/03 03:47:16;;;;;;;1.60;1.50;;;20.20;93.00;;;;;;7380776;19;20931;-85
2022/07/03 03:49:45;;;;;;;2.27;2.07;;;20.20;92.90;;;;;;7381626;19;20876;-83
2022/07/03 03:52:15;;;;;;;1.60;1.50;;;20.20;93.10;;;;;;7380293;19;20405;-84
2022/07/03 03:54:47;;;;;;;1.93;1.73;;;20.10;93.20;;;;;;7377231;19;20392;-84
2022/07/03 03:57:21;;;;;;;2.10;2.00;;;20.20;92.80;;;;;;7380988;19;20436;-83
2022/07/03 03:59:51;;;;;;;1.73;1.63;;;20.30;92.40;;;;;;7378692;19;20395;-85
2022/07/03 04:02:23;;;;;;;1.93;1.73;;;20.30;92.70;;;;;;7383104;19;20449;-85
2022/07/03 04:04:53;;;;;;;4.20;1.80;;;20.40;92.20;;;;;;7382238;19;20446;-86
2022/07/03 04:07:22;;;;;;;2.53;1.60;;;20.50;92.20;;;;;;7382808;19;20510;-85
2022/07/03 04:09:52;;;;;;;4.13;2.13;;;20.30;92.40;;;;;;7379016;19;20443;-85
2022/07/03 04:12:21;;;;;;;4.63;2.07;;;20.40;92.60;;;;;;7384982;19;20995;-89
2022/07/03 04:14:53;;;;;;;2.10;1.90;;;20.30;92.90;;;;;;7391505;19;20732;-89
2022/07/03 04:17:28;;;;;;;1.80;1.70;;;20.20;93.10;;;;;;7391160;19;20445;-89
2022/07/03 04:19:57;;;;;;;6.27;2.10;;;20.20;93.70;;;;;;7385079;19;20429;-83
2022/07/03 04:22:27;;;;;;;4.73;2.00;;;20.10;94.10;;;;;;7378131;19;20408;-84
2022/07/03 04:24:58;;;;;;;3.83;1.90;;;20.10;94.90;;;;;;7372243;19;20779;-83
2022/07/03 04:27:29;;;;;;;2.00;1.80;;;20.20;94.60;;;;;;7380261;19;20450;-83
2022/07/03 04:29:59;;;;;;;2.00;1.80;;;20.20;94.80;;;;;;7379887;19;20397;-82
2022/07/03 04:32:31;;;;;;;3.70;2.40;;;20.40;94.20;;;;;;7379096;19;20959;-81
2022/07/03 04:35:00;;;;;;;2.07;1.87;;;20.30;94.60;;;;;;7376717;19;20449;-83
2022/07/03 04:37:30;;;;;;;2.70;2.20;;;20.30;94.70;;;;;;7380319;19;20963;-84
2022/07/03 04:40:02;;;;;;;2.20;1.97;;;20.30;94.60;;;;;;7372148;19;20484;-83
2022/07/03 04:42:33;;;;;;;1.63;1.53;;;20.40;94.70;;;;;;7378212;19;20407;-84
2022/07/03 04:45:14;;;;;;;2.00;1.90;;;20.40;94.80;;;;;;7374106;19;20420;-82
2022/07/03 04:47:49;;;;;;;2.27;2.07;;;20.50;94.60;;;;;;7376454;19;20408;-82
2022/07/03 04:50:18;;;;;;;3.40;2.00;;;20.40;94.80;;;;;;7382028;19;20503;-87
2022/07/03 04:52:51;;;;;;;3.30;1.90;;;20.50;94.60;;;;;;7385994;19;20407;-86
2022/07/03 04:55:21;;;;;;;1.80;1.70;;;20.50;94.60;;;;;;7378858;19;21220;-85
2022/07/03 04:57:52;;;;;;;2.70;2.10;;;20.50;94.60;;;;;;7377754;19;21501;-84
2022/07/03 05:00:24;;;;;;;1.63;1.53;;;20.40;94.90;;;;;;7373101;19;21557;-84
2022/07/03 05:02:56;;;;;;;2.70;1.70;;;20.50;95.00;;;;;;7378039;19;20508;-84
2022/07/03 05:05:28;;;;;;;2.77;1.90;;;20.50;94.60;;;;;;7376916;19;20434;-84
2022/07/03 05:08:00;;;;;;;1.77;1.67;;;20.50;94.80;;;;;;7377994;19;20419;-86
2022/07/03 05:10:30;;;;;;;3.30;2.10;;;20.70;93.90;;;;;;7375092;19;20517;-85
2022/07/03 05:13:00;;;;;;;1.60;1.50;;;20.70;93.80;;;;;;7379858;19;21263;-84
2022/07/03 05:15:29;;;;;;;1.70;1.60;;;20.70;93.70;;;;;;7372357;19;20424;-84
2022/07/03 05:18:01;;;;;;;2.37;1.70;;;20.80;92.60;;;;;;7378690;19;20417;-85
2022/07/03 05:20:31;;;;;;;2.00;1.90;;;20.90;92.60;;;;;;7370941;19;20416;-83
2022/07/03 05:23:02;;;;;;;1.60;1.50;;;21.00;92.00;;;;;;7370204;19;20440;-83
2022/07/03 05:25:33;;;;;;;2.27;1.60;;;21.00;92.30;;;;;;7365836;19;20435;-83
2022/07/03 05:28:04;;;;;;;2.17;1.97;;;21.10;92.30;;;;;;7372043;19;20500;-83
2022/07/03 05:30:33;;;;;;;1.60;1.50;;;21.10;92.00;;;;;;7368926;19;20412;-84
2022/07/03 05:33:08;;;;;;;1.70;1.50;;;21.10;92.40;;;;;;7372153;19;20411;-83
2022/07/03 05:35:41;;;;;;;2.03;1.53;;;21.20;92.70;;;;;;7367342;19;20987;-82
2022/07/03 05:38:13;;;;;;;1.83;1.63;;;21.30;92.20;;;;;;7370654;19;21467;-85
2022/07/03 05:40:40;;;;;;;1.83;1.50;;;21.30;91.70;;;;;;7370836;19;20920;-85
2022/07/03 05:43:09;;;;;;;2.23;2.03;;;21.40;91.40;;;;;;7372962;19;20501;-84
2022/07/03 05:45:41;;;;;;;2.00;1.77;;;21.50;91.10;;;;;;7364004;19;20417;-83
2022/07/03 05:48:13;;;;;;;4.77;2.07;;;21.50;91.20;;;;;;7374114;19;21357;-82
2022/07/03 05:50:45;;;;;;;2.40;2.00;;;21.60;91.40;;;;;;7372920;19;20935;-85
2022/07/03 05:53:14;;;;;;;1.60;1.50;;;21.70;91.20;;;;;;7379605;19;20532;-82
2022/07/03 05:55:44;;;;;;;2.20;1.80;;;21.80;91.10;;;;;;7398390;19;20472;-84
2022/07/03 05:58:13;;;;;;;1.73;1.63;;;21.80;88.20;;;;;;7419350;19;20719;-84
2022/07/03 06:00:43;;;;;;;2.00;1.80;;;21.80;88.20;;;;;;7421405;19;20420;-83
2022/07/03 06:03:17;;;;;;;1.57;1.47;;;21.90;87.90;;;;;;7418578;19;20392;-83
2022/07/03 06:05:46;;;;;;;1.80;1.50;;;22.10;88.40;;;;;;7415682;19;20412;-85
2022/07/03 06:08:18;;;;;;;1.40;1.30;;;22.10;88.90;;;;;;7416376;19;20397;-85
2022/07/03 06:10:47;;;;;;;1.90;1.50;;;22.20;87.70;;;;;;7416536;19;20408;-87
2022/07/03 06:13:19;;;;;;;1.60;1.47;;;22.30;86.70;;;;;;7424929;19;20452;-87
2022/07/03 06:15:48;;;;;;;1.80;1.20;;;22.40;86.00;;;;;;7421866;19;20404;-87
2022/07/03 06:18:20;;;;;;;2.13;1.60;;;22.40;88.40;;;;;;7420212;19;20432;-87
2022/07/03 06:20:52;;;;;;;1.60;1.50;;;22.60;86.60;;;;;;7418645;19;20414;-88
2022/07/03 06:23:24;;;;;;;1.70;1.60;;;22.60;87.20;;;;;;7422150;19;20907;-88
2022/07/03 06:25:53;;;;;;;2.10;1.60;;;22.60;85.00;;;;;;7424679;19;20385;-86
2022/07/03 06:28:23;;;;;;;1.43;1.33;;;22.70;83.20;;;;;;7428214;19;20376;-85
2022/07/03 06:30:52;;;;;;;1.60;1.27;;;22.80;82.90;;;;;;7415053;19;20935;-85
2022/07/03 06:33:25;;;;;;;2.33;1.40;;;22.90;80.20;;;;;;7398286;19;20401;-83
2022/07/03 06:35:57;;;;;;;1.83;1.20;;;23.00;81.70;;;;;;7395041;19;20417;-84
2022/07/03 06:38:26;;;;;;;1.93;1.67;;;23.10;79.00;;;;;;7393820;19;20447;-85
2022/07/03 06:40:56;;;;;;;1.90;1.70;;;23.20;79.80;;;;;;7393636;19;20420;-87
2022/07/03 06:43:25;;;;;;;1.40;1.30;;;23.30;79.90;;;;;;7388010;19;20995;-83
2022/07/03 06:45:55;;;;;;;1.50;1.40;;;23.40;76.40;;;;;;7385704;19;20424;-84
2022/07/03 06:48:27;;;;;;;1.90;1.20;;;23.50;75.70;;;;;;7388074;19;20412;-87
2022/07/03 06:50:56;;;;;;;2.10;1.23;;;23.60;75.40;;;;;;7385786;19;22024;-84
2022/07/03 06:53:26;;;;;;;2.30;1.37;;;23.70;73.70;;;;;;7384325;19;20408;-85
2022/07/03 06:55:57;;;;;;;1.57;1.47;;;23.80;72.90;;;;;;7380374;19;20400;-85
2022/07/03 06:58:27;;;;;;;2.00;1.47;;;23.90;73.30;;;;;;7362309;19;20432;-85
2022/07/03 07:00:56;;;;;;;2.80;1.30;;;24.00;69.60;;;;;;7363695;19;20459;-80
2022/07/03 07:03:30;;;;;;;1.37;1.27;;;24.20;70.90;;;;;;7366678;19;21072;-80
2022/07/03 07:06:00;;;;;;;1.90;1.13;;;24.30;68.00;;;;;;7370998;19;21165;-79
2022/07/03 07:08:32;;;;;;;1.30;1.20;;;24.50;67.30;;;;;;7366858;19;21172;-77
2022/07/03 07:11:02;;;;;;;2.00;1.23;;;24.70;64.90;;;;;;7371059;19;20378;-82
2022/07/03 07:13:34;;;;;;;7.90;1.83;;;24.80;63.70;;;;;;7374139;19;20415;-78
2022/07/03 07:16:03;;;;;;;1.57;1.07;;;24.90;62.20;;;;;;7363298;19;20770;-77
2022/07/03 07:18:36;;;;;;;0.97;0.87;;;25.10;62.10;;;;;;7364687;19;20421;-78
2022/07/03 07:21:05;;;;;;;2.97;1.20;;;25.30;61.00;;;;;;7370003;19;20432;-80
2022/07/03 07:23:37;;;;;;;27.00;4.27;;;25.40;59.30;;;;;;7366430;19;20441;-76
2022/07/03 07:26:07;;;;;;;1.47;1.37;;;25.50;65.40;;;;;;7368447;19;20479;-81
2022/07/03 07:28:36;;;;;;;4.00;1.73;;;25.60;60.70;;;;;;7371482;19;20400;-81
2022/07/03 07:31:06;;;;;;;1.47;1.37;;;25.70;58.80;;;;;;7376368;19;20373;-79
2022/07/03 07:33:40;;;;;;;2.03;1.20;;;25.80;59.20;;;;;;7370984;19;20434;-81
2022/07/03 07:36:10;;;;;;;0.97;0.93;;;25.90;59.30;;;;;;7374212;19;20408;-80
2022/07/03 07:38:40;;;;;;;4.00;1.40;;;25.90;57.40;;;;;;7369918;19;20453;-81
2022/07/03 07:41:09;;;;;;;4.93;1.43;;;25.90;57.90;;;;;;7372612;19;20944;-83
2022/07/03 07:43:39;;;;;;;9.40;1.67;;;26.10;57.30;;;;;;7377837;19;21547;-87
2022/07/03 07:46:08;;;;;;;2.17;1.30;;;26.20;57.90;;;;;;7370260;19;21058;-86
2022/07/03 07:48:41;;;;;;;2.33;0.93;;;26.30;57.50;;;;;;7371347;19;20427;-83
2022/07/03 07:51:10;;;;;;;2.93;1.20;;;26.40;57.30;;;;;;7372036;19;21019;-85
2022/07/03 07:53:40;;;;;;;3.50;1.43;;;26.40;56.70;;;;;;7368519;19;20423;-85
2022/07/03 07:56:10;;;;;;;1.10;1.00;;;26.50;54.50;;;;;;7361551;19;20473;-83
2022/07/03 07:58:39;;;;;;;5.80;1.43;;;26.70;54.90;;;;;;7348924;19;20487;-84
2022/07/03 08:06:37;;;;;;;2.93;1.13;;;26.80;54.10;;;;;;7353302;19;20396;-82
2022/07/03 08:09:07;;;;;;;1.87;0.90;;;26.80;52.90;;;;;;7366577;19;20904;-82
2022/07/03 08:11:36;;;;;;;1.40;1.20;;;26.90;52.50;;;;;;7372812;19;20368;-81
2022/07/03 08:14:10;;;;;;;1.77;0.87;;;27.00;52.30;;;;;;7374403;19;20408;-82
2022/07/03 08:16:40;;;;;;;1.40;0.97;;;27.10;51.40;;;;;;7376189;19;20409;-82
2022/07/03 08:19:13;;;;;;;2.33;1.90;;;27.20;51.70;;;;;;7375569;19;20424;-83
2022/07/03 08:21:44;;;;;;;1.40;0.90;;;27.40;51.10;;;;;;7373868;19;21027;-82
2022/07/03 08:24:13;;;;;;;1.00;0.90;;;27.50;51.00;;;;;;7372713;19;20510;-82
2022/07/03 08:26:43;;;;;;;1.33;1.23;;;27.70;50.00;;;;;;7375699;19;20423;-83
2022/07/03 08:29:14;;;;;;;1.83;1.10;;;27.80;49.20;;;;;;7377935;19;20376;-83
2022/07/03 08:31:44;;;;;;;1.17;1.00;;;27.80;50.50;;;;;;7374918;19;20428;-83
2022/07/03 08:34:16;;;;;;;0.90;0.90;;;28.00;49.40;;;;;;7375656;19;20416;-84
2022/07/03 08:36:46;;;;;;;1.10;1.00;;;27.90;48.70;;;;;;7372565;19;20601;-83
2022/07/03 08:39:18;;;;;;;0.73;0.73;;;28.00;47.90;;;;;;7372516;19;20828;-83
2022/07/03 08:41:50;;;;;;;1.00;0.83;;;27.90;47.60;;;;;;7374391;19;20412;-83
2022/07/03 08:44:21;;;;;;;1.10;0.77;;;28.00;47.80;;;;;;7374209;19;20412;-84
2022/07/03 08:46:54;;;;;;;2.53;1.10;;;28.20;46.60;;;;;;7376012;19;20455;-81
2022/07/03 08:49:27;;;;;;;0.57;0.57;;;28.30;45.50;;;;;;7377094;19;20392;-82
2022/07/03 08:51:57;;;;;;;1.50;1.07;;;28.40;46.50;;;;;;7377394;19;20408;-82
2022/07/03 08:54:31;;;;;;;1.33;1.10;;;28.60;45.10;;;;;;7372010;19;20424;-83
2022/07/03 08:57:00;;;;;;;1.77;1.00;;;28.80;44.90;;;;;;7370705;19;20448;-83
2022/07/03 08:59:38;;;;;;;0.67;0.60;;;29.00;42.10;;;;;;7374993;19;20383;-82
2022/07/03 09:02:08;;;;;;;1.00;0.80;;;29.10;41.20;;;;;;7375671;19;20404;-83
2022/07/03 09:04:41;;;;;;;1.97;0.83;;;29.20;41.70;;;;;;7376975;19;20464;-84
2022/07/03 09:07:13;;;;;;;0.63;0.63;;;29.20;41.80;;;;;;7374726;19;20404;-84
2022/07/03 09:09:43;;;;;;;1.23;0.70;;;29.30;41.10;;;;;;7373806;19;20923;-83
2022/07/03 09:12:17;;;;;;;0.93;0.73;;;29.40;41.20;;;;;;7373940;19;20421;-83
2022/07/03 09:14:46;;;;;;;1.13;1.03;;;29.50;40.40;;;;;;7374036;19;20404;-83
2022/07/03 09:17:17;;;;;;;1.90;0.80;;;29.60;38.10;;;;;;7373041;19;20482;-83
2022/07/03 09:19:50;;;;;;;2.03;0.60;;;29.60;38.00;;;;;;7375932;19;20527;-83
2022/07/03 09:22:24;;;;;;;1.40;1.13;;;29.70;38.40;;;;;;7391195;19;20412;-83
2022/07/03 09:24:55;;;;;;;2.00;0.60;;;29.90;38.30;;;;;;7414213;19;20407;-83
2022/07/03 09:27:26;;;;;;;1.57;0.60;;;29.90;38.40;;;;;;7423050;19;20425;-83
2022/07/03 09:30:03;;;;;;;1.47;0.73;;;30.10;39.50;;;;;;7422867;19;20407;-83
2022/07/03 09:32:44;;;;;;;4.40;0.90;;;30.20;39.30;;;;;;7423039;19;20396;-84
2022/07/03 09:35:21;;;;;;;5.83;1.00;;;30.30;37.60;;;;;;7424297;19;20423;-83
2022/07/03 09:37:55;;;;;;;1.37;0.73;;;30.40;38.40;;;;;;7409924;19;20418;-83
2022/07/03 09:40:26;;;;;;;0.80;0.73;;;30.40;38.20;;;;;;7410787;19;21186;-83
2022/07/03 09:43:04;;;;;;;1.43;0.70;;;30.10;38.10;;;;;;7412114;19;20424;-83
2022/07/03 09:45:52;;;;;;;1.53;0.70;;;30.20;37.50;;;;;;7414755;19;20423;-82
2022/07/03 09:48:26;;;;;;;1.57;0.70;;;30.50;38.40;;;;;;7413031;19;20447;-83
2022/07/03 09:51:17;;;;;;;0.60;0.47;;;30.40;36.40;;;;;;7413783;19;20721;-83
2022/07/03 09:53:51;;;;;;;2.70;0.90;;;30.20;37.30;;;;;;7411917;19;20395;-83
2022/07/03 09:56:22;;;;;;;0.97;0.60;;;30.40;38.80;;;;;;7393560;19;20414;-81
2022/07/03 09:59:10;;;;;;;0.70;0.60;;;30.70;37.00;;;;;;7389021;19;20416;-81
2022/07/03 10:01:40;;;;;;;0.63;0.63;;;30.90;37.40;;;;;;7389777;19;20408;-81
2022/07/03 10:04:15;;;;;;;1.73;1.57;;;31.20;37.40;;;;;;7385730;19;20975;-83
2022/07/03 10:06:55;;;;;;;0.87;0.77;;;31.50;36.90;;;;;;7383998;19;22067;-81
2022/07/03 10:09:29;;;;;;;0.83;0.70;;;31.40;37.10;;;;;;7384835;19;20416;-82
2022/07/03 10:12:00;;;;;;;0.70;0.70;;;31.30;36.30;;;;;;7383724;19;20416;-82
2022/07/03 10:14:31;;;;;;;0.60;0.60;;;31.20;38.00;;;;;;7383937;19;20458;-82
2022/07/03 10:17:03;;;;;;;1.90;0.70;;;31.30;38.20;;;;;;7382742;19;20895;-82
2022/07/03 10:19:40;;;;;;;1.43;0.70;;;31.50;38.00;;;;;;7382988;19;20431;-83
2022/07/03 10:22:21;;;;;;;1.07;0.90;;;31.70;37.60;;;;;;7379141;19;20404;-82
2022/07/03 10:24:52;;;;;;;0.70;0.60;;;31.90;37.30;;;;;;7382894;19;20416;-82
2022/07/03 10:27:22;;;;;;;0.70;0.63;;;32.20;36.70;;;;;;7380873;19;20754;-82
2022/07/03 10:29:54;;;;;;;0.73;0.60;;;32.20;37.50;;;;;;7383696;19;20416;-82
2022/07/03 10:32:24;;;;;;;2.00;0.77;;;32.40;36.70;;;;;;7383887;19;20421;-82
2022/07/03 10:34:54;;;;;;;1.03;0.93;;;32.30;37.60;;;;;;7377693;19;20384;-82
2022/07/03 10:37:31;;;;;;;0.70;0.70;;;32.40;36.60;;;;;;7378380;19;21445;-82
2022/07/03 10:44:45;;;;;;;1.60;0.83;;;32.40;36.60;;;;;;7383653;19;20431;-82
2022/07/03 10:46:11;;;;;;;0.93;0.83;;;32.30;36.70;;;;;;7382352;19;20770;-82
2022/07/03 10:48:54;;;;;;;1.40;0.77;;;32.10;37.50;;;;;;7381088;19;20430;-84
2022/07/03 10:51:24;;;;;;;1.30;1.00;;;32.00;37.40;;;;;;7381654;19;20386;-82
2022/07/03 10:54:20;;;;;;;1.40;1.10;;;32.30;37.10;;;;;;7378795;19;20416;-81
2022/07/03 10:57:20;;;;;;;2.70;1.00;;;32.70;36.20;;;;;;7374382;19;20551;-82
2022/07/03 11:00:10;;;;;;;1.47;0.73;;;33.10;35.90;;;;;;7380855;19;20412;-82
2022/07/03 11:02:42;;;;;;;1.10;0.83;;;33.60;35.20;;;;;;7381563;19;20408;-83
2022/07/03 11:05:18;;;;;;;0.93;0.67;;;33.90;34.60;;;;;;7380409;19;20396;-83
2022/07/03 11:08:06;;;;;;;0.90;0.80;;;33.90;35.10;;;;;;7380074;19;20423;-83
2022/07/03 11:10:43;;;;;;;1.00;0.90;;;33.80;34.40;;;;;;7378432;19;21230;-82
2022/07/03 11:13:23;;;;;;;1.50;0.63;;;33.50;35.10;;;;;;7378890;19;20449;-82
2022/07/03 11:15:55;;;;;;;1.23;0.60;;;33.60;35.10;;;;;;7381592;19;20404;-82
2022/07/03 11:18:34;;;;;;;2.07;1.87;;;33.50;34.90;;;;;;7376805;19;21039;-82
2022/07/03 11:21:23;;;;;;;1.30;1.20;;;33.70;35.30;;;;;;7375764;19;20459;-81
2022/07/03 11:24:27;;;;;;;1.33;0.90;;;33.90;36.00;;;;;;7379782;19;20839;-81
2022/07/03 11:27:29;;;;;;;1.13;0.70;;;34.10;34.00;;;;;;7377041;19;20440;-82
2022/07/03 11:30:01;;;;;;;3.07;1.07;;;34.10;33.30;;;;;;7375927;19;20514;-83
2022/07/03 11:32:50;;;;;;;0.93;0.70;;;34.00;33.40;;;;;;7379117;19;20404;-81
2022/07/03 11:35:48;;;;;;;1.47;1.00;;;34.00;33.80;;;;;;7375193;19;20935;-82
2022/07/03 11:38:20;;;;;;;1.20;0.80;;;33.90;34.30;;;;;;7376546;19;20488;-82
2022/07/03 11:40:55;;;;;;;1.13;1.00;;;34.00;34.10;;;;;;7378436;19;20938;-83
2022/07/03 11:43:30;;;;;;;2.07;0.90;;;34.10;34.30;;;;;;7378254;19;20396;-82
2022/07/03 11:46:03;;;;;;;0.80;0.80;;;34.30;33.80;;;;;;7380277;19;20420;-82
2022/07/03 11:48:35;;;;;;;5.60;4.60;;;34.50;33.80;;;;;;7378951;19;20411;-81
2022/07/03 11:51:05;;;;;;;1.07;0.80;;;34.60;33.60;;;;;;7378071;19;20408;-82
2022/07/03 11:53:38;;;;;;;1.10;0.90;;;34.30;34.10;;;;;;7377072;19;20464;-82
2022/07/03 11:56:10;;;;;;;0.90;0.80;;;34.50;33.70;;;;;;7379581;19;20416;-82
2022/07/03 11:58:46;;;;;;;0.87;0.70;;;34.60;33.20;;;;;;7376501;19;20428;-81
2022/07/03 12:01:32;;;;;;;1.67;0.70;;;34.60;33.80;;;;;;7376533;19;20420;-81
2022/07/03 12:04:10;;;;;;;1.90;1.27;;;34.60;34.40;;;;;;7374128;19;20942;-82
2022/07/03 12:06:40;;;;;;;1.30;1.10;;;34.60;34.00;;;;;;7375066;19;20400;-82
2022/07/03 12:09:33;;;;;;;1.47;0.80;;;34.60;33.60;;;;;;7378378;19;20401;-82
2022/07/03 12:12:04;;;;;;;2.00;0.90;;;34.70;34.20;;;;;;7374919;19;20967;-83
2022/07/03 12:14:45;;;;;;;1.67;1.10;;;34.70;33.70;;;;;;7378788;19;20755;-82
2022/07/03 12:17:19;;;;;;;2.90;1.00;;;34.80;33.00;;;;;;7377226;19;20404;-83
2022/07/03 12:19:50;;;;;;;1.07;0.80;;;34.70;33.10;;;;;;7375892;19;20424;-82
2022/07/03 12:22:30;;;;;;;1.10;0.73;;;34.60;33.50;;;;;;7374503;19;20416;-83
2022/07/03 12:25:05;;;;;;;1.13;0.70;;;34.10;33.70;;;;;;7375718;19;20445;-82
2022/07/03 12:27:36;;;;;;;0.80;0.80;;;33.80;34.60;;;;;;7377579;19;20412;-81
2022/07/03 12:30:10;;;;;;;1.83;0.70;;;33.60;34.40;;;;;;7375768;19;20944;-82
2022/07/03 12:32:41;;;;;;;1.60;0.90;;;33.50;35.60;;;;;;7377219;19;20442;-82
2022/07/03 12:35:11;;;;;;;0.70;0.63;;;33.60;34.60;;;;;;7375176;19;20411;-82
2022/07/03 12:37:44;;;;;;;1.97;0.90;;;33.80;34.40;;;;;;7377765;19;20450;-82
2022/07/03 12:40:15;;;;;;;1.00;0.90;;;33.90;33.70;;;;;;7377477;19;20420;-82
2022/07/03 12:42:46;;;;;;;3.40;0.80;;;33.70;34.60;;;;;;7380909;19;20535;-82
2022/07/03 12:45:20;;;;;;;0.90;0.67;;;33.50;34.50;;;;;;7408153;19;20475;-82
2022/07/03 12:48:00;;;;;;;1.97;0.80;;;33.60;34.80;;;;;;7415165;19;20404;-82
2022/07/03 12:50:48;;;;;;;1.03;0.70;;;34.00;34.60;;;;;;7411370;19;20418;-82
2022/07/03 12:53:29;;;;;;;1.63;1.30;;;33.60;34.90;;;;;;7413621;19;20396;-82
2022/07/03 12:56:04;;;;;;;1.20;0.70;;;33.40;34.70;;;;;;7416972;19;20404;-83
2022/07/03 13:01:36;;;;;;;0.70;0.67;;;32.90;34.70;;;;;;7414287;19;20429;-83
2022/07/03 13:04:08;;;;;;;1.30;1.10;;;32.70;34.80;;;;;;7419322;19;20444;-83
2022/07/03 13:06:38;;;;;;;2.20;0.80;;;32.60;35.40;;;;;;7420285;19;20448;-83
2022/07/03 13:09:10;;;;;;;1.93;1.00;;;32.60;35.30;;;;;;7423563;19;20412;-83
2022/07/03 13:11:41;;;;;;;1.37;1.27;;;32.30;35.80;;;;;;7424540;19;20409;-83
2022/07/03 13:14:12;;;;;;;1.77;0.90;;;32.10;36.10;;;;;;7415526;19;20409;-83
2022/07/03 13:16:50;;;;;;;1.17;0.80;;;32.10;36.50;;;;;;7389403;19;20400;-82
2022/07/03 13:19:21;;;;;;;0.87;0.73;;;32.00;37.30;;;;;;7403215;19;20416;-82
2022/07/03 13:21:55;;;;;;;1.20;0.80;;;31.90;37.00;;;;;;7386711;19;20376;-83
2022/07/03 13:24:30;;;;;;;2.87;1.00;;;31.90;37.30;;;;;;7382813;19;20423;-83
2022/07/03 13:26:59;;;;;;;1.50;1.30;;;31.90;37.00;;;;;;7382324;19;20449;-82
2022/07/03 13:29:29;;;;;;;2.43;1.17;;;32.10;37.40;;;;;;7379601;19;20386;-83
2022/07/03 13:32:01;;;;;;;1.93;1.10;;;32.40;37.00;;;;;;7379052;19;21249;-83